sensor_id;sensor_type;location;lat;lon;timestamp;P1;durP1;ratioP1;P2;durP2;ratioP2
57605;SDS011;43430;48.204;11.556;2022-12-26T00:01:05;3.50;;;1.02;;
57605;SDS011;43430;48.204;11.556;2022-12-26T00:03:33;4.28;;;1.30;;
57605;SDS011;43430;48.204;11.556;2022-12-26T00:05:58;3.55;;;0.98;;
57605;SDS011;43430;48.204;11.556;2022-12-26T00:08:24;3.42;;;1.13;;
57605;SDS011;43430;48.204;11.556;2022-12-26T00:10:49;3.58;;;0.50;;
57605;SDS011;43430;48.204;11.556;2022-12-26T00:13:14;2.58;;;0.47;;
57605;SDS011;43430;48.204;11.556;2022-12-26T00:15:40;1.38;;;0.32;;
57605;SDS011;43430;48.204;11.556;2022-12-26T00:18:05;1.00;;;0.40;;
57605;SDS011;43430;48.204;11.556;2022-12-26T00:20:31;1.30;;;0.40;;
57605;SDS011;43430;48.204;11.556;2022-12-26T00:22:56;1.40;;;0.55;;
57605;SDS011;43430;48.204;11.556;2022-12-26T00:25:22;0.88;;;0.30;;
57605;SDS011;43430;48.204;11.556;2022-12-26T00:27:47;1.73;;;0.60;;
57605;SDS011;43430;48.204;11.556;2022-12-26T00:30:12;1.40;;;0.32;;
57605;SDS011;43430;48.204;11.556;2022-12-26T00:32:38;1.20;;;0.30;;
57605;SDS011;43430;48.204;11.556;2022-12-26T00:35:03;3.03;;;0.68;;
57605;SDS011;43430;48.204;11.556;2022-12-26T00:37:29;1.35;;;0.45;;
57605;SDS011;43430;48.204;11.556;2022-12-26T00:39:54;2.65;;;0.30;;
57605;SDS011;43430;48.204;11.556;2022-12-26T00:42:20;2.85;;;0.30;;
57605;SDS011;43430;48.204;11.556;2022-12-26T00:44:45;1.20;;;0.47;;
57605;SDS011;43430;48.204;11.556;2022-12-26T00:47:11;2.40;;;0.50;;
57605;SDS011;43430;48.204;11.556;2022-12-26T00:49:36;1.25;;;0.38;;
57605;SDS011;43430;48.204;11.556;2022-12-26T00:52:01;1.67;;;0.50;;
57605;SDS011;43430;48.204;11.556;2022-12-26T00:54:27;1.58;;;0.32;;
57605;SDS011;43430;48.204;11.556;2022-12-26T00:56:53;1.48;;;0.40;;
57605;SDS011;43430;48.204;11.556;2022-12-26T00:59:18;1.77;;;0.47;;
57605;SDS011;43430;48.204;11.556;2022-12-26T01:01:43;1.88;;;0.60;;
57605;SDS011;43430;48.204;11.556;2022-12-26T01:04:09;1.17;;;0.20;;
57605;SDS011;43430;48.204;11.556;2022-12-26T01:06:34;2.20;;;0.40;;
57605;SDS011;43430;48.204;11.556;2022-12-26T01:08:59;1.98;;;0.40;;
57605;SDS011;43430;48.204;11.556;2022-12-26T01:11:25;1.88;;;0.30;;
57605;SDS011;43430;48.204;11.556;2022-12-26T01:14:06;1.52;;;0.38;;
57605;SDS011;43430;48.204;11.556;2022-12-26T01:16:37;1.83;;;0.40;;
57605;SDS011;43430;48.204;11.556;2022-12-26T01:19:03;1.70;;;0.30;;
57605;SDS011;43430;48.204;11.556;2022-12-26T01:21:29;2.05;;;0.40;;
57605;SDS011;43430;48.204;11.556;2022-12-26T01:23:55;2.45;;;0.40;;
57605;SDS011;43430;48.204;11.556;2022-12-26T01:26:20;1.52;;;0.40;;
57605;SDS011;43430;48.204;11.556;2022-12-26T01:28:49;1.90;;;0.40;;
57605;SDS011;43430;48.204;11.556;2022-12-26T01:31:15;1.45;;;0.43;;
57605;SDS011;43430;48.204;11.556;2022-12-26T01:33:41;1.52;;;0.32;;
57605;SDS011;43430;48.204;11.556;2022-12-26T01:36:06;2.55;;;0.50;;
57605;SDS011;43430;48.204;11.556;2022-12-26T01:38:32;1.55;;;0.40;;
57605;SDS011;43430;48.204;11.556;2022-12-26T01:40:57;1.73;;;0.22;;
57605;SDS011;43430;48.204;11.556;2022-12-26T01:44:00;1.52;;;0.32;;
57605;SDS011;43430;48.204;11.556;2022-12-26T01:46:31;2.05;;;0.30;;
57605;SDS011;43430;48.204;11.556;2022-12-26T01:49:12;1.30;;;0.40;;
57605;SDS011;43430;48.204;11.556;2022-12-26T01:51:58;1.20;;;0.30;;
57605;SDS011;43430;48.204;11.556;2022-12-26T01:56:54;1.27;;;0.22;;
57605;SDS011;43430;48.204;11.556;2022-12-26T01:59:21;4.90;;;0.45;;
57605;SDS011;43430;48.204;11.556;2022-12-26T02:01:50;2.58;;;0.40;;
57605;SDS011;43430;48.204;11.556;2022-12-26T02:04:19;3.95;;;0.47;;
57605;SDS011;43430;48.204;11.556;2022-12-26T02:07:07;1.73;;;0.57;;
57605;SDS011;43430;48.204;11.556;2022-12-26T02:09:32;2.17;;;0.38;;
57605;SDS011;43430;48.204;11.556;2022-12-26T02:12:05;1.40;;;0.40;;
57605;SDS011;43430;48.204;11.556;2022-12-26T02:14:34;2.20;;;0.40;;
57605;SDS011;43430;48.204;11.556;2022-12-26T02:17:01;2.90;;;0.82;;
57605;SDS011;43430;48.204;11.556;2022-12-26T02:27:41;1.73;;;0.40;;
57605;SDS011;43430;48.204;11.556;2022-12-26T02:41:25;1.85;;;0.32;;
57605;SDS011;43430;48.204;11.556;2022-12-26T02:49:53;1.35;;;0.40;;
57605;SDS011;43430;48.204;11.556;2022-12-26T02:55:48;1.88;;;0.50;;
57605;SDS011;43430;48.204;11.556;2022-12-26T02:58:40;1.25;;;0.35;;
57605;SDS011;43430;48.204;11.556;2022-12-26T03:01:38;1.58;;;0.40;;
57605;SDS011;43430;48.204;11.556;2022-12-26T03:07:15;2.05;;;0.45;;
57605;SDS011;43430;48.204;11.556;2022-12-26T03:10:05;1.55;;;0.40;;
57605;SDS011;43430;48.204;11.556;2022-12-26T03:13:00;2.70;;;0.38;;
57605;SDS011;43430;48.204;11.556;2022-12-26T03:15:38;1.73;;;0.30;;
57605;SDS011;43430;48.204;11.556;2022-12-26T03:18:34;2.08;;;0.60;;
57605;SDS011;43430;48.204;11.556;2022-12-26T03:21:03;1.40;;;0.20;;
57605;SDS011;43430;48.204;11.556;2022-12-26T03:23:30;1.65;;;0.30;;
57605;SDS011;43430;48.204;11.556;2022-12-26T03:25:58;1.58;;;0.20;;
57605;SDS011;43430;48.204;11.556;2022-12-26T03:28:46;1.65;;;0.20;;
57605;SDS011;43430;48.204;11.556;2022-12-26T03:31:13;2.03;;;0.50;;
57605;SDS011;43430;48.204;11.556;2022-12-26T03:33:40;1.42;;;0.50;;
57605;SDS011;43430;48.204;11.556;2022-12-26T03:36:56;1.15;;;0.20;;
57605;SDS011;43430;48.204;11.556;2022-12-26T03:45:48;1.75;;;0.20;;
57605;SDS011;43430;48.204;11.556;2022-12-26T03:51:55;1.20;;;0.20;;
57605;SDS011;43430;48.204;11.556;2022-12-26T03:54:56;1.42;;;0.20;;
57605;SDS011;43430;48.204;11.556;2022-12-26T03:57:56;2.10;;;0.28;;
57605;SDS011;43430;48.204;11.556;2022-12-26T04:00:46;1.88;;;0.30;;
57605;SDS011;43430;48.204;11.556;2022-12-26T04:03:32;1.45;;;0.25;;
57605;SDS011;43430;48.204;11.556;2022-12-26T04:06:21;0.90;;;0.20;;
57605;SDS011;43430;48.204;11.556;2022-12-26T04:09:14;1.20;;;0.20;;
57605;SDS011;43430;48.204;11.556;2022-12-26T04:12:03;1.00;;;0.20;;
57605;SDS011;43430;48.204;11.556;2022-12-26T04:17:55;1.52;;;0.20;;
57605;SDS011;43430;48.204;11.556;2022-12-26T04:20:48;1.70;;;0.40;;
57605;SDS011;43430;48.204;11.556;2022-12-26T04:23:24;1.55;;;0.40;;
57605;SDS011;43430;48.204;11.556;2022-12-26T04:26:22;1.95;;;0.30;;
57605;SDS011;43430;48.204;11.556;2022-12-26T04:29:12;1.10;;;0.20;;
57605;SDS011;43430;48.204;11.556;2022-12-26T04:34:54;3.53;;;0.55;;
57605;SDS011;43430;48.204;11.556;2022-12-26T04:37:52;1.48;;;0.30;;
57605;SDS011;43430;48.204;11.556;2022-12-26T04:40:40;0.88;;;0.20;;
57605;SDS011;43430;48.204;11.556;2022-12-26T04:43:29;1.23;;;0.40;;
57605;SDS011;43430;48.204;11.556;2022-12-26T04:46:16;1.15;;;0.28;;
57605;SDS011;43430;48.204;11.556;2022-12-26T04:48:44;1.80;;;0.20;;
57605;SDS011;43430;48.204;11.556;2022-12-26T04:51:30;0.95;;;0.20;;
57605;SDS011;43430;48.204;11.556;2022-12-26T04:53:55;1.70;;;0.30;;
57605;SDS011;43430;48.204;11.556;2022-12-26T04:56:21;1.13;;;0.30;;
57605;SDS011;43430;48.204;11.556;2022-12-26T04:58:46;1.65;;;0.20;;
57605;SDS011;43430;48.204;11.556;2022-12-26T05:01:11;1.02;;;0.20;;
57605;SDS011;43430;48.204;11.556;2022-12-26T05:03:55;0.80;;;0.20;;
57605;SDS011;43430;48.204;11.556;2022-12-26T05:06:39;1.40;;;0.32;;
57605;SDS011;43430;48.204;11.556;2022-12-26T05:09:23;0.85;;;0.20;;
57605;SDS011;43430;48.204;11.556;2022-12-26T05:11:58;1.40;;;0.20;;
57605;SDS011;43430;48.204;11.556;2022-12-26T05:14:23;0.80;;;0.20;;
57605;SDS011;43430;48.204;11.556;2022-12-26T05:16:49;0.70;;;0.10;;
57605;SDS011;43430;48.204;11.556;2022-12-26T05:19:33;1.02;;;0.20;;
57605;SDS011;43430;48.204;11.556;2022-12-26T05:22:16;1.67;;;0.32;;
57605;SDS011;43430;48.204;11.556;2022-12-26T05:25:00;1.20;;;0.20;;
57605;SDS011;43430;48.204;11.556;2022-12-26T05:27:45;0.85;;;0.20;;
57605;SDS011;43430;48.204;11.556;2022-12-26T05:30:29;1.10;;;0.30;;
57605;SDS011;43430;48.204;11.556;2022-12-26T05:32:54;1.70;;;0.43;;
57605;SDS011;43430;48.204;11.556;2022-12-26T05:35:38;1.85;;;0.20;;
57605;SDS011;43430;48.204;11.556;2022-12-26T05:38:04;1.05;;;0.30;;
57605;SDS011;43430;48.204;11.556;2022-12-26T05:40:30;1.48;;;0.30;;
57605;SDS011;43430;48.204;11.556;2022-12-26T05:42:55;1.67;;;0.28;;
57605;SDS011;43430;48.204;11.556;2022-12-26T05:45:21;0.98;;;0.25;;
57605;SDS011;43430;48.204;11.556;2022-12-26T05:47:46;1.10;;;0.30;;
57605;SDS011;43430;48.204;11.556;2022-12-26T05:50:12;1.67;;;0.30;;
57605;SDS011;43430;48.204;11.556;2022-12-26T05:52:37;1.10;;;0.30;;
57605;SDS011;43430;48.204;11.556;2022-12-26T05:55:02;0.90;;;0.20;;
57605;SDS011;43430;48.204;11.556;2022-12-26T05:57:28;3.15;;;0.43;;
57605;SDS011;43430;48.204;11.556;2022-12-26T05:59:54;1.48;;;0.25;;
57605;SDS011;43430;48.204;11.556;2022-12-26T06:02:19;0.98;;;0.30;;
57605;SDS011;43430;48.204;11.556;2022-12-26T06:04:44;1.02;;;0.25;;
57605;SDS011;43430;48.204;11.556;2022-12-26T06:07:10;1.48;;;0.43;;
57605;SDS011;43430;48.204;11.556;2022-12-26T06:09:35;1.23;;;0.20;;
57605;SDS011;43430;48.204;11.556;2022-12-26T06:12:00;2.50;;;0.40;;
57605;SDS011;43430;48.204;11.556;2022-12-26T06:14:26;2.28;;;0.65;;
57605;SDS011;43430;48.204;11.556;2022-12-26T06:16:51;1.23;;;0.30;;
57605;SDS011;43430;48.204;11.556;2022-12-26T06:19:16;2.78;;;0.47;;
57605;SDS011;43430;48.204;11.556;2022-12-26T06:21:42;2.05;;;0.30;;
57605;SDS011;43430;48.204;11.556;2022-12-26T06:24:07;1.40;;;0.40;;
57605;SDS011;43430;48.204;11.556;2022-12-26T06:26:33;1.40;;;0.35;;
57605;SDS011;43430;48.204;11.556;2022-12-26T06:28:58;1.30;;;0.25;;
57605;SDS011;43430;48.204;11.556;2022-12-26T06:31:24;1.20;;;0.22;;
57605;SDS011;43430;48.204;11.556;2022-12-26T06:33:50;1.23;;;0.30;;
57605;SDS011;43430;48.204;11.556;2022-12-26T06:36:20;2.30;;;0.40;;
57605;SDS011;43430;48.204;11.556;2022-12-26T06:38:47;1.33;;;0.22;;
57605;SDS011;43430;48.204;11.556;2022-12-26T06:41:13;2.15;;;0.40;;
57605;SDS011;43430;48.204;11.556;2022-12-26T06:43:40;1.92;;;0.30;;
57605;SDS011;43430;48.204;11.556;2022-12-26T06:46:07;1.77;;;0.50;;
57605;SDS011;43430;48.204;11.556;2022-12-26T06:48:39;2.45;;;0.30;;
57605;SDS011;43430;48.204;11.556;2022-12-26T06:51:12;1.60;;;0.45;;
57605;SDS011;43430;48.204;11.556;2022-12-26T06:53:39;2.38;;;0.52;;
57605;SDS011;43430;48.204;11.556;2022-12-26T06:56:05;1.23;;;0.30;;
57605;SDS011;43430;48.204;11.556;2022-12-26T06:58:38;2.25;;;0.40;;
57605;SDS011;43430;48.204;11.556;2022-12-26T07:01:17;1.27;;;0.45;;
57605;SDS011;43430;48.204;11.556;2022-12-26T07:03:43;2.30;;;0.50;;
57605;SDS011;43430;48.204;11.556;2022-12-26T07:06:17;3.30;;;0.75;;
57605;SDS011;43430;48.204;11.556;2022-12-26T07:08:44;1.80;;;0.63;;
57605;SDS011;43430;48.204;11.556;2022-12-26T07:11:16;4.40;;;0.85;;
57605;SDS011;43430;48.204;11.556;2022-12-26T07:13:44;3.22;;;0.70;;
57605;SDS011;43430;48.204;11.556;2022-12-26T07:16:10;1.98;;;0.57;;
57605;SDS011;43430;48.204;11.556;2022-12-26T07:18:35;1.95;;;0.60;;
57605;SDS011;43430;48.204;11.556;2022-12-26T07:21:05;1.38;;;0.40;;
57605;SDS011;43430;48.204;11.556;2022-12-26T07:23:32;1.92;;;0.55;;
57605;SDS011;43430;48.204;11.556;2022-12-26T07:25:57;1.83;;;0.60;;
57605;SDS011;43430;48.204;11.556;2022-12-26T07:28:23;1.70;;;0.40;;
57605;SDS011;43430;48.204;11.556;2022-12-26T07:30:49;1.85;;;0.55;;
57605;SDS011;43430;48.204;11.556;2022-12-26T07:33:15;3.15;;;0.50;;
57605;SDS011;43430;48.204;11.556;2022-12-26T07:35:41;1.98;;;0.45;;
57605;SDS011;43430;48.204;11.556;2022-12-26T07:38:06;1.63;;;0.43;;
57605;SDS011;43430;48.204;11.556;2022-12-26T07:40:32;1.63;;;0.50;;
57605;SDS011;43430;48.204;11.556;2022-12-26T07:43:00;3.30;;;0.85;;
57605;SDS011;43430;48.204;11.556;2022-12-26T07:45:26;2.95;;;0.35;;
57605;SDS011;43430;48.204;11.556;2022-12-26T07:47:52;1.83;;;0.45;;
57605;SDS011;43430;48.204;11.556;2022-12-26T07:50:18;1.70;;;0.52;;
57605;SDS011;43430;48.204;11.556;2022-12-26T07:52:43;2.88;;;0.70;;
57605;SDS011;43430;48.204;11.556;2022-12-26T07:55:08;2.05;;;0.40;;
57605;SDS011;43430;48.204;11.556;2022-12-26T07:57:34;1.77;;;0.70;;
57605;SDS011;43430;48.204;11.556;2022-12-26T07:59:59;3.08;;;0.50;;
57605;SDS011;43430;48.204;11.556;2022-12-26T08:02:24;2.42;;;0.40;;
57605;SDS011;43430;48.204;11.556;2022-12-26T08:04:51;2.42;;;0.77;;
57605;SDS011;43430;48.204;11.556;2022-12-26T08:07:16;3.05;;;0.95;;
57605;SDS011;43430;48.204;11.556;2022-12-26T08:09:42;2.25;;;0.90;;
57605;SDS011;43430;48.204;11.556;2022-12-26T08:12:09;2.08;;;0.63;;
57605;SDS011;43430;48.204;11.556;2022-12-26T08:14:35;1.73;;;0.40;;
57605;SDS011;43430;48.204;11.556;2022-12-26T08:17:01;1.77;;;0.50;;
57605;SDS011;43430;48.204;11.556;2022-12-26T08:19:27;1.75;;;0.40;;
57605;SDS011;43430;48.204;11.556;2022-12-26T08:21:52;1.63;;;0.57;;
57605;SDS011;43430;48.204;11.556;2022-12-26T08:24:17;2.97;;;0.73;;
57605;SDS011;43430;48.204;11.556;2022-12-26T08:26:43;2.97;;;0.60;;
57605;SDS011;43430;48.204;11.556;2022-12-26T08:29:08;2.45;;;0.70;;
57605;SDS011;43430;48.204;11.556;2022-12-26T08:31:34;2.08;;;0.60;;
57605;SDS011;43430;48.204;11.556;2022-12-26T08:33:59;2.70;;;0.50;;
57605;SDS011;43430;48.204;11.556;2022-12-26T08:36:25;1.45;;;0.50;;
57605;SDS011;43430;48.204;11.556;2022-12-26T08:38:50;2.58;;;0.95;;
57605;SDS011;43430;48.204;11.556;2022-12-26T08:41:15;1.88;;;0.43;;
57605;SDS011;43430;48.204;11.556;2022-12-26T08:43:50;2.65;;;0.75;;
57605;SDS011;43430;48.204;11.556;2022-12-26T08:48:43;4.13;;;0.80;;
57605;SDS011;43430;48.204;11.556;2022-12-26T08:51:14;2.13;;;0.73;;
57605;SDS011;43430;48.204;11.556;2022-12-26T08:53:44;2.80;;;1.05;;
57605;SDS011;43430;48.204;11.556;2022-12-26T08:56:11;4.47;;;0.80;;
57605;SDS011;43430;48.204;11.556;2022-12-26T08:58:38;2.92;;;0.70;;
57605;SDS011;43430;48.204;11.556;2022-12-26T09:01:08;2.30;;;0.60;;
57605;SDS011;43430;48.204;11.556;2022-12-26T09:03:36;2.15;;;0.68;;
57605;SDS011;43430;48.204;11.556;2022-12-26T09:06:02;5.93;;;0.73;;
57605;SDS011;43430;48.204;11.556;2022-12-26T09:08:28;1.63;;;0.73;;
57605;SDS011;43430;48.204;11.556;2022-12-26T09:10:54;2.83;;;0.82;;
57605;SDS011;43430;48.204;11.556;2022-12-26T09:13:21;2.20;;;0.60;;
57605;SDS011;43430;48.204;11.556;2022-12-26T09:15:46;3.83;;;0.75;;
57605;SDS011;43430;48.204;11.556;2022-12-26T09:18:12;3.95;;;0.80;;
57605;SDS011;43430;48.204;11.556;2022-12-26T09:20:37;2.20;;;0.75;;
57605;SDS011;43430;48.204;11.556;2022-12-26T09:23:02;3.50;;;1.08;;
57605;SDS011;43430;48.204;11.556;2022-12-26T09:25:28;1.63;;;0.57;;
57605;SDS011;43430;48.204;11.556;2022-12-26T09:27:53;2.17;;;0.65;;
57605;SDS011;43430;48.204;11.556;2022-12-26T09:30:19;2.47;;;0.90;;
57605;SDS011;43430;48.204;11.556;2022-12-26T09:32:45;2.35;;;0.65;;
57605;SDS011;43430;48.204;11.556;2022-12-26T09:35:11;2.63;;;0.65;;
57605;SDS011;43430;48.204;11.556;2022-12-26T09:37:36;3.22;;;0.90;;
57605;SDS011;43430;48.204;11.556;2022-12-26T09:40:02;3.33;;;0.90;;
57605;SDS011;43430;48.204;11.556;2022-12-26T09:42:31;2.47;;;0.82;;
57605;SDS011;43430;48.204;11.556;2022-12-26T09:54:37;1.75;;;0.88;;
57605;SDS011;43430;48.204;11.556;2022-12-26T09:57:07;3.10;;;0.70;;
57605;SDS011;43430;48.204;11.556;2022-12-26T09:59:55;1.50;;;0.68;;
57605;SDS011;43430;48.204;11.556;2022-12-26T10:02:22;1.75;;;0.68;;
57605;SDS011;43430;48.204;11.556;2022-12-26T10:04:50;2.25;;;0.55;;
57605;SDS011;43430;48.204;11.556;2022-12-26T10:15:34;1.58;;;0.50;;
57605;SDS011;43430;48.204;11.556;2022-12-26T10:23:56;1.95;;;0.60;;
57605;SDS011;43430;48.204;11.556;2022-12-26T10:26:28;2.83;;;0.85;;
57605;SDS011;43430;48.204;11.556;2022-12-26T10:31:34;2.58;;;0.50;;
57605;SDS011;43430;48.204;11.556;2022-12-26T10:36:43;4.45;;;0.80;;
57605;SDS011;43430;48.204;11.556;2022-12-26T10:39:14;1.60;;;0.57;;
57605;SDS011;43430;48.204;11.556;2022-12-26T10:42:25;1.98;;;0.80;;
57605;SDS011;43430;48.204;11.556;2022-12-26T10:45:06;1.70;;;0.70;;
57605;SDS011;43430;48.204;11.556;2022-12-26T10:47:42;1.85;;;0.63;;
57605;SDS011;43430;48.204;11.556;2022-12-26T10:50:14;2.38;;;0.80;;
57605;SDS011;43430;48.204;11.556;2022-12-26T10:52:41;2.42;;;0.80;;
57605;SDS011;43430;48.204;11.556;2022-12-26T10:55:11;2.10;;;0.80;;
57605;SDS011;43430;48.204;11.556;2022-12-26T10:57:49;2.83;;;0.63;;
57605;SDS011;43430;48.204;11.556;2022-12-26T11:00:20;3.05;;;1.20;;
57605;SDS011;43430;48.204;11.556;2022-12-26T11:03:00;3.13;;;1.05;;
57605;SDS011;43430;48.204;11.556;2022-12-26T11:05:37;4.13;;;1.00;;
57605;SDS011;43430;48.204;11.556;2022-12-26T11:08:28;1.58;;;0.75;;
57605;SDS011;43430;48.204;11.556;2022-12-26T11:13:45;1.58;;;0.80;;
57605;SDS011;43430;48.204;11.556;2022-12-26T11:16:22;1.50;;;0.80;;
57605;SDS011;43430;48.204;11.556;2022-12-26T11:18:50;3.45;;;0.85;;
57605;SDS011;43430;48.204;11.556;2022-12-26T11:23:42;1.98;;;1.00;;
57605;SDS011;43430;48.204;11.556;2022-12-26T11:28:43;3.25;;;0.60;;
57605;SDS011;43430;48.204;11.556;2022-12-26T11:31:13;1.75;;;0.80;;
57605;SDS011;43430;48.204;11.556;2022-12-26T11:33:48;1.27;;;0.43;;
57605;SDS011;43430;48.204;11.556;2022-12-26T11:38:50;2.35;;;0.70;;
57605;SDS011;43430;48.204;11.556;2022-12-26T11:44:19;2.47;;;0.80;;
57605;SDS011;43430;48.204;11.556;2022-12-26T11:46:48;1.38;;;0.73;;
57605;SDS011;43430;48.204;11.556;2022-12-26T11:50:04;1.95;;;0.50;;
57605;SDS011;43430;48.204;11.556;2022-12-26T12:01:16;1.90;;;0.80;;
57605;SDS011;43430;48.204;11.556;2022-12-26T12:03:36;1.50;;;0.60;;
57605;SDS011;43430;48.204;11.556;2022-12-26T12:16:44;2.05;;;0.90;;
57605;SDS011;43430;48.204;11.556;2022-12-26T12:24:43;3.88;;;1.10;;
57605;SDS011;43430;48.204;11.556;2022-12-26T12:27:29;4.00;;;1.50;;
57605;SDS011;43430;48.204;11.556;2022-12-26T12:38:18;3.83;;;1.20;;
57605;SDS011;43430;48.204;11.556;2022-12-26T12:40:52;3.80;;;1.80;;
57605;SDS011;43430;48.204;11.556;2022-12-26T12:46:20;4.05;;;1.55;;
57605;SDS011;43430;48.204;11.556;2022-12-26T12:56:27;4.35;;;1.67;;
57605;SDS011;43430;48.204;11.556;2022-12-26T13:01:41;5.15;;;1.70;;
57605;SDS011;43430;48.204;11.556;2022-12-26T13:04:16;3.83;;;1.58;;
57605;SDS011;43430;48.204;11.556;2022-12-26T13:06:48;5.78;;;2.03;;
57605;SDS011;43430;48.204;11.556;2022-12-26T13:09:49;5.28;;;1.75;;
57605;SDS011;43430;48.204;11.556;2022-12-26T13:12:26;3.47;;;1.33;;
57605;SDS011;43430;48.204;11.556;2022-12-26T13:15:00;7.80;;;2.50;;
57605;SDS011;43430;48.204;11.556;2022-12-26T13:17:32;4.47;;;1.70;;
57605;SDS011;43430;48.204;11.556;2022-12-26T13:20:03;3.85;;;1.48;;
57605;SDS011;43430;48.204;11.556;2022-12-26T13:22:38;5.15;;;1.60;;
57605;SDS011;43430;48.204;11.556;2022-12-26T13:25:29;7.05;;;2.10;;
57605;SDS011;43430;48.204;11.556;2022-12-26T13:27:59;6.53;;;2.20;;
57605;SDS011;43430;48.204;11.556;2022-12-26T13:30:33;4.85;;;2.20;;
57605;SDS011;43430;48.204;11.556;2022-12-26T13:33:00;5.43;;;2.25;;
57605;SDS011;43430;48.204;11.556;2022-12-26T13:38:25;6.75;;;2.35;;
57605;SDS011;43430;48.204;11.556;2022-12-26T13:41:28;6.05;;;2.78;;
57605;SDS011;43430;48.204;11.556;2022-12-26T13:51:57;6.38;;;3.20;;
57605;SDS011;43430;48.204;11.556;2022-12-26T13:54:24;5.32;;;2.70;;
57605;SDS011;43430;48.204;11.556;2022-12-26T13:56:57;6.28;;;2.97;;
57605;SDS011;43430;48.204;11.556;2022-12-26T13:59:35;8.45;;;3.03;;
57605;SDS011;43430;48.204;11.556;2022-12-26T14:05:11;4.78;;;2.42;;
57605;SDS011;43430;48.204;11.556;2022-12-26T14:07:52;8.98;;;3.47;;
57605;SDS011;43430;48.204;11.556;2022-12-26T14:13:27;4.53;;;2.17;;
57605;SDS011;43430;48.204;11.556;2022-12-26T14:19:07;5.13;;;2.30;;
57605;SDS011;43430;48.204;11.556;2022-12-26T14:24:34;7.38;;;2.38;;
57605;SDS011;43430;48.204;11.556;2022-12-26T14:30:19;7.28;;;2.10;;
57605;SDS011;43430;48.204;11.556;2022-12-26T14:35:34;5.75;;;1.83;;
57605;SDS011;43430;48.204;11.556;2022-12-26T14:40:55;5.00;;;1.63;;
57605;SDS011;43430;48.204;11.556;2022-12-26T14:43:29;7.03;;;1.60;;
57605;SDS011;43430;48.204;11.556;2022-12-26T14:46:52;4.38;;;1.75;;
57605;SDS011;43430;48.204;11.556;2022-12-26T14:48:57;6.55;;;2.10;;
57605;SDS011;43430;48.204;11.556;2022-12-26T14:51:28;6.10;;;2.25;;
57605;SDS011;43430;48.204;11.556;2022-12-26T14:54:12;6.00;;;1.95;;
57605;SDS011;43430;48.204;11.556;2022-12-26T14:56:49;6.25;;;2.20;;
57605;SDS011;43430;48.204;11.556;2022-12-26T14:59:32;4.53;;;1.75;;
57605;SDS011;43430;48.204;11.556;2022-12-26T15:02:27;7.18;;;2.13;;
57605;SDS011;43430;48.204;11.556;2022-12-26T15:13:39;7.93;;;2.33;;
57605;SDS011;43430;48.204;11.556;2022-12-26T15:24:44;4.47;;;1.80;;
57605;SDS011;43430;48.204;11.556;2022-12-26T15:27:42;5.72;;;2.13;;
57605;SDS011;43430;48.204;11.556;2022-12-26T15:33:17;3.97;;;1.40;;
57605;SDS011;43430;48.204;11.556;2022-12-26T15:35:46;3.80;;;1.42;;
57605;SDS011;43430;48.204;11.556;2022-12-26T15:38:32;3.58;;;1.58;;
57605;SDS011;43430;48.204;11.556;2022-12-26T15:44:00;4.68;;;1.35;;
57605;SDS011;43430;48.204;11.556;2022-12-26T15:46:41;3.42;;;1.20;;
57605;SDS011;43430;48.204;11.556;2022-12-26T15:49:18;3.75;;;1.48;;
57605;SDS011;43430;48.204;11.556;2022-12-26T15:54:53;3.97;;;0.98;;
57605;SDS011;43430;48.204;11.556;2022-12-26T16:00:22;3.30;;;1.20;;
57605;SDS011;43430;48.204;11.556;2022-12-26T16:05:42;2.58;;;0.75;;
57605;SDS011;43430;48.204;11.556;2022-12-26T16:13:34;3.65;;;1.20;;
57605;SDS011;43430;48.204;11.556;2022-12-26T16:15:59;2.85;;;0.60;;
57605;SDS011;43430;48.204;11.556;2022-12-26T16:18:28;2.63;;;0.68;;
57605;SDS011;43430;48.204;11.556;2022-12-26T16:20:57;3.63;;;0.47;;
57605;SDS011;43430;48.204;11.556;2022-12-26T16:23:43;3.70;;;0.77;;
57605;SDS011;43430;48.204;11.556;2022-12-26T16:26:17;1.20;;;0.20;;
57605;SDS011;43430;48.204;11.556;2022-12-26T16:28:47;0.90;;;0.30;;
57605;SDS011;43430;48.204;11.556;2022-12-26T16:31:17;2.28;;;0.70;;
57605;SDS011;43430;48.204;11.556;2022-12-26T16:33:46;2.83;;;0.55;;
57605;SDS011;43430;48.204;11.556;2022-12-26T16:36:20;1.60;;;0.30;;
57605;SDS011;43430;48.204;11.556;2022-12-26T16:38:47;1.52;;;0.52;;
57605;SDS011;43430;48.204;11.556;2022-12-26T16:41:32;0.57;;;0.17;;
57605;SDS011;43430;48.204;11.556;2022-12-26T16:47:04;1.80;;;0.20;;
57605;SDS011;43430;48.204;11.556;2022-12-26T16:49:35;1.05;;;0.20;;
57605;SDS011;43430;48.204;11.556;2022-12-26T16:52:02;1.67;;;0.20;;
57605;SDS011;43430;48.204;11.556;2022-12-26T16:54:29;3.00;;;0.32;;
57605;SDS011;43430;48.204;11.556;2022-12-26T16:57:03;0.70;;;0.20;;
57605;SDS011;43430;48.204;11.556;2022-12-26T16:59:40;1.00;;;0.20;;
57605;SDS011;43430;48.204;11.556;2022-12-26T17:02:17;0.85;;;0.20;;
57605;SDS011;43430;48.204;11.556;2022-12-26T17:04:54;1.30;;;0.32;;
57605;SDS011;43430;48.204;11.556;2022-12-26T17:07:24;1.20;;;0.30;;
57605;SDS011;43430;48.204;11.556;2022-12-26T17:09:53;2.75;;;0.50;;
57605;SDS011;43430;48.204;11.556;2022-12-26T17:12:23;2.22;;;0.50;;
57605;SDS011;43430;48.204;11.556;2022-12-26T17:14:50;2.28;;;0.45;;
57605;SDS011;43430;48.204;11.556;2022-12-26T17:19:45;2.17;;;0.50;;
57605;SDS011;43430;48.204;11.556;2022-12-26T17:24:41;3.70;;;1.20;;
57605;SDS011;43430;48.204;11.556;2022-12-26T17:27:28;1.95;;;0.50;;
57605;SDS011;43430;48.204;11.556;2022-12-26T17:32:35;1.38;;;0.30;;
57605;SDS011;43430;48.204;11.556;2022-12-26T17:35:05;1.08;;;0.20;;
57605;SDS011;43430;48.204;11.556;2022-12-26T17:40:09;1.20;;;0.20;;
57605;SDS011;43430;48.204;11.556;2022-12-26T17:42:49;1.83;;;0.30;;
57605;SDS011;43430;48.204;11.556;2022-12-26T17:45:20;1.20;;;0.40;;
57605;SDS011;43430;48.204;11.556;2022-12-26T17:47:49;1.60;;;0.30;;
57605;SDS011;43430;48.204;11.556;2022-12-26T17:50:19;1.77;;;0.50;;
57605;SDS011;43430;48.204;11.556;2022-12-26T17:52:46;2.20;;;0.45;;
57605;SDS011;43430;48.204;11.556;2022-12-26T17:55:13;2.38;;;0.20;;
57605;SDS011;43430;48.204;11.556;2022-12-26T17:57:41;1.10;;;0.35;;
57605;SDS011;43430;48.204;11.556;2022-12-26T18:00:14;1.15;;;0.20;;
57605;SDS011;43430;48.204;11.556;2022-12-26T18:02:41;1.40;;;0.30;;
57605;SDS011;43430;48.204;11.556;2022-12-26T18:05:06;2.78;;;0.70;;
57605;SDS011;43430;48.204;11.556;2022-12-26T18:07:32;1.33;;;0.20;;
57605;SDS011;43430;48.204;11.556;2022-12-26T18:09:58;1.33;;;0.40;;
57605;SDS011;43430;48.204;11.556;2022-12-26T18:12:24;0.98;;;0.22;;
57605;SDS011;43430;48.204;11.556;2022-12-26T18:14:49;1.92;;;0.55;;
57605;SDS011;43430;48.204;11.556;2022-12-26T18:17:15;2.50;;;0.50;;
57605;SDS011;43430;48.204;11.556;2022-12-26T18:19:44;1.75;;;0.52;;
57605;SDS011;43430;48.204;11.556;2022-12-26T18:22:14;2.67;;;0.20;;
57605;SDS011;43430;48.204;11.556;2022-12-26T18:24:41;1.85;;;0.52;;
57605;SDS011;43430;48.204;11.556;2022-12-26T18:27:21;1.85;;;0.30;;
57605;SDS011;43430;48.204;11.556;2022-12-26T18:29:51;0.82;;;0.10;;
57605;SDS011;43430;48.204;11.556;2022-12-26T18:32:21;1.60;;;0.28;;
57605;SDS011;43430;48.204;11.556;2022-12-26T18:34:48;2.92;;;0.50;;
57605;SDS011;43430;48.204;11.556;2022-12-26T18:37:14;1.45;;;0.40;;
57605;SDS011;43430;48.204;11.556;2022-12-26T18:39:39;1.73;;;0.20;;
57605;SDS011;43430;48.204;11.556;2022-12-26T18:42:05;1.52;;;0.30;;
57605;SDS011;43430;48.204;11.556;2022-12-26T18:44:34;1.70;;;0.32;;